sensor_id;sensor_type;location;lat;lon;timestamp;P1;durP1;ratioP1;P2;durP2;ratioP2
10248;SDS011;5169;50.560;9.714;2023-10-19T00:01:25;324.20;;;76.30;;
10248;SDS011;5169;50.560;9.714;2023-10-19T00:03:53;322.13;;;74.17;;
10248;SDS011;5169;50.560;9.714;2023-10-19T00:06:21;323.47;;;75.37;;
10248;SDS011;5169;50.560;9.714;2023-10-19T00:08:48;323.10;;;76.90;;
10248;SDS011;5169;50.560;9.714;2023-10-19T00:11:15;323.43;;;75.90;;
10248;SDS011;5169;50.560;9.714;2023-10-19T00:13:47;320.17;;;74.73;;
10248;SDS011;5169;50.560;9.714;2023-10-19T00:16:19;321.10;;;74.00;;
10248;SDS011;5169;50.560;9.714;2023-10-19T00:18:49;319.80;;;73.27;;
10248;SDS011;5169;50.560;9.714;2023-10-19T00:21:18;320.00;;;73.50;;
10248;SDS011;5169;50.560;9.714;2023-10-19T00:23:45;320.20;;;74.13;;
10248;SDS011;5169;50.560;9.714;2023-10-19T00:26:15;321.03;;;75.57;;
10248;SDS011;5169;50.560;9.714;2023-10-19T00:28:48;318.57;;;73.77;;
10248;SDS011;5169;50.560;9.714;2023-10-19T00:31:18;322.97;;;76.10;;
10248;SDS011;5169;50.560;9.714;2023-10-19T00:33:46;322.13;;;75.57;;
10248;SDS011;5169;50.560;9.714;2023-10-19T00:36:14;320.40;;;74.60;;
10248;SDS011;5169;50.560;9.714;2023-10-19T00:38:40;323.50;;;75.23;;
10248;SDS011;5169;50.560;9.714;2023-10-19T00:41:24;320.97;;;75.60;;
10248;SDS011;5169;50.560;9.714;2023-10-19T00:43:58;322.43;;;76.20;;
10248;SDS011;5169;50.560;9.714;2023-10-19T00:46:35;321.07;;;77.63;;
10248;SDS011;5169;50.560;9.714;2023-10-19T00:49:07;320.33;;;74.33;;
10248;SDS011;5169;50.560;9.714;2023-10-19T00:51:44;318.27;;;72.20;;
10248;SDS011;5169;50.560;9.714;2023-10-19T00:57:07;318.67;;;72.67;;
10248;SDS011;5169;50.560;9.714;2023-10-19T00:59:36;319.23;;;72.87;;
10248;SDS011;5169;50.560;9.714;2023-10-19T01:02:12;319.27;;;74.13;;
10248;SDS011;5169;50.560;9.714;2023-10-19T01:04:51;316.37;;;72.07;;
10248;SDS011;5169;50.560;9.714;2023-10-19T01:07:28;316.77;;;71.63;;
10248;SDS011;5169;50.560;9.714;2023-10-19T01:09:59;318.07;;;72.87;;
10248;SDS011;5169;50.560;9.714;2023-10-19T01:12:43;315.10;;;70.43;;
10248;SDS011;5169;50.560;9.714;2023-10-19T01:15:19;315.20;;;71.83;;
10248;SDS011;5169;50.560;9.714;2023-10-19T01:17:55;314.67;;;68.80;;
10248;SDS011;5169;50.560;9.714;2023-10-19T01:20:25;314.13;;;70.40;;
10248;SDS011;5169;50.560;9.714;2023-10-19T01:25:42;313.97;;;69.03;;
10248;SDS011;5169;50.560;9.714;2023-10-19T01:28:14;313.07;;;67.37;;
10248;SDS011;5169;50.560;9.714;2023-10-19T01:30:42;310.47;;;67.47;;
10248;SDS011;5169;50.560;9.714;2023-10-19T01:33:09;312.03;;;67.30;;
10248;SDS011;5169;50.560;9.714;2023-10-19T01:35:42;310.77;;;66.20;;
10248;SDS011;5169;50.560;9.714;2023-10-19T01:38:27;314.40;;;67.07;;
10248;SDS011;5169;50.560;9.714;2023-10-19T01:41:05;312.57;;;68.90;;
10248;SDS011;5169;50.560;9.714;2023-10-19T01:43:44;313.20;;;68.33;;
10248;SDS011;5169;50.560;9.714;2023-10-19T01:46:13;312.90;;;67.57;;
10248;SDS011;5169;50.560;9.714;2023-10-19T01:48:47;313.27;;;67.33;;
10248;SDS011;5169;50.560;9.714;2023-10-19T01:51:15;312.13;;;67.17;;
10248;SDS011;5169;50.560;9.714;2023-10-19T01:53:44;313.70;;;69.20;;
10248;SDS011;5169;50.560;9.714;2023-10-19T01:56:10;312.53;;;66.67;;
10248;SDS011;5169;50.560;9.714;2023-10-19T01:58:38;313.97;;;69.73;;
10248;SDS011;5169;50.560;9.714;2023-10-19T02:01:05;316.07;;;70.30;;
10248;SDS011;5169;50.560;9.714;2023-10-19T02:03:44;313.40;;;68.47;;
10248;SDS011;5169;50.560;9.714;2023-10-19T02:06:10;314.93;;;70.20;;
10248;SDS011;5169;50.560;9.714;2023-10-19T02:08:45;311.07;;;67.27;;
10248;SDS011;5169;50.560;9.714;2023-10-19T02:11:18;312.30;;;68.07;;
10248;SDS011;5169;50.560;9.714;2023-10-19T02:13:49;317.10;;;70.50;;
10248;SDS011;5169;50.560;9.714;2023-10-19T02:16:26;314.83;;;70.67;;
10248;SDS011;5169;50.560;9.714;2023-10-19T02:18:56;313.83;;;70.67;;
10248;SDS011;5169;50.560;9.714;2023-10-19T02:21:22;313.90;;;70.90;;
10248;SDS011;5169;50.560;9.714;2023-10-19T02:23:48;312.63;;;70.50;;
10248;SDS011;5169;50.560;9.714;2023-10-19T02:26:17;312.97;;;70.03;;
10248;SDS011;5169;50.560;9.714;2023-10-19T02:28:45;313.43;;;69.63;;
10248;SDS011;5169;50.560;9.714;2023-10-19T02:31:16;312.67;;;69.47;;
10248;SDS011;5169;50.560;9.714;2023-10-19T02:33:52;312.57;;;69.50;;
10248;SDS011;5169;50.560;9.714;2023-10-19T02:36:29;309.37;;;67.77;;
10248;SDS011;5169;50.560;9.714;2023-10-19T02:38:59;309.97;;;68.37;;
10248;SDS011;5169;50.560;9.714;2023-10-19T02:41:32;309.20;;;67.57;;
10248;SDS011;5169;50.560;9.714;2023-10-19T02:44:07;309.03;;;67.90;;
10248;SDS011;5169;50.560;9.714;2023-10-19T02:46:36;307.93;;;67.93;;
10248;SDS011;5169;50.560;9.714;2023-10-19T02:49:08;308.43;;;68.27;;
10248;SDS011;5169;50.560;9.714;2023-10-19T02:51:38;307.83;;;68.03;;
10248;SDS011;5169;50.560;9.714;2023-10-19T02:54:06;309.07;;;68.00;;
10248;SDS011;5169;50.560;9.714;2023-10-19T02:56:32;310.23;;;68.73;;
10248;SDS011;5169;50.560;9.714;2023-10-19T02:59:01;308.97;;;67.63;;
10248;SDS011;5169;50.560;9.714;2023-10-19T03:04:53;309.00;;;67.97;;
10248;SDS011;5169;50.560;9.714;2023-10-19T03:07:19;309.23;;;68.80;;
10248;SDS011;5169;50.560;9.714;2023-10-19T03:09:45;308.83;;;68.03;;
10248;SDS011;5169;50.560;9.714;2023-10-19T03:12:13;309.73;;;69.10;;
10248;SDS011;5169;50.560;9.714;2023-10-19T03:14:39;307.50;;;67.60;;
10248;SDS011;5169;50.560;9.714;2023-10-19T03:17:08;306.83;;;67.33;;
10248;SDS011;5169;50.560;9.714;2023-10-19T03:19:35;306.57;;;67.83;;
10248;SDS011;5169;50.560;9.714;2023-10-19T03:22:01;306.77;;;67.13;;
10248;SDS011;5169;50.560;9.714;2023-10-19T03:24:31;308.70;;;68.93;;
10248;SDS011;5169;50.560;9.714;2023-10-19T03:27:04;309.37;;;68.90;;
10248;SDS011;5169;50.560;9.714;2023-10-19T03:29:50;307.70;;;67.07;;
10248;SDS011;5169;50.560;9.714;2023-10-19T03:32:20;307.60;;;67.77;;
10248;SDS011;5169;50.560;9.714;2023-10-19T03:34:54;308.17;;;68.03;;
10248;SDS011;5169;50.560;9.714;2023-10-19T03:37:26;308.50;;;68.63;;
10248;SDS011;5169;50.560;9.714;2023-10-19T03:39:55;310.00;;;70.13;;
10248;SDS011;5169;50.560;9.714;2023-10-19T03:42:23;309.93;;;70.27;;
10248;SDS011;5169;50.560;9.714;2023-10-19T03:44:57;306.37;;;67.60;;
10248;SDS011;5169;50.560;9.714;2023-10-19T03:47:27;308.10;;;69.37;;
10248;SDS011;5169;50.560;9.714;2023-10-19T03:50:02;308.23;;;68.57;;
10248;SDS011;5169;50.560;9.714;2023-10-19T03:52:34;307.93;;;66.97;;
10248;SDS011;5169;50.560;9.714;2023-10-19T03:55:02;306.40;;;67.73;;
10248;SDS011;5169;50.560;9.714;2023-10-19T03:57:36;306.30;;;67.70;;
10248;SDS011;5169;50.560;9.714;2023-10-19T04:00:06;307.37;;;68.57;;
10248;SDS011;5169;50.560;9.714;2023-10-19T04:02:36;305.83;;;66.13;;
10248;SDS011;5169;50.560;9.714;2023-10-19T04:05:05;307.67;;;67.53;;
10248;SDS011;5169;50.560;9.714;2023-10-19T04:07:34;306.77;;;67.70;;
10248;SDS011;5169;50.560;9.714;2023-10-19T04:09:59;307.90;;;67.47;;
10248;SDS011;5169;50.560;9.714;2023-10-19T04:12:39;308.67;;;69.00;;
10248;SDS011;5169;50.560;9.714;2023-10-19T04:15:09;308.20;;;67.83;;
10248;SDS011;5169;50.560;9.714;2023-10-19T04:17:38;311.27;;;70.00;;
10248;SDS011;5169;50.560;9.714;2023-10-19T04:20:16;311.73;;;69.33;;
10248;SDS011;5169;50.560;9.714;2023-10-19T04:22:43;311.10;;;68.83;;
10248;SDS011;5169;50.560;9.714;2023-10-19T04:25:12;310.40;;;68.50;;
10248;SDS011;5169;50.560;9.714;2023-10-19T04:27:41;311.20;;;69.83;;
10248;SDS011;5169;50.560;9.714;2023-10-19T04:30:08;312.10;;;70.67;;
10248;SDS011;5169;50.560;9.714;2023-10-19T04:32:41;311.73;;;68.53;;
10248;SDS011;5169;50.560;9.714;2023-10-19T04:35:07;313.13;;;70.07;;
10248;SDS011;5169;50.560;9.714;2023-10-19T04:37:35;312.00;;;69.67;;
10248;SDS011;5169;50.560;9.714;2023-10-19T04:40:01;311.10;;;69.97;;
10248;SDS011;5169;50.560;9.714;2023-10-19T04:42:27;311.97;;;70.40;;
10248;SDS011;5169;50.560;9.714;2023-10-19T04:44:56;314.33;;;71.40;;
10248;SDS011;5169;50.560;9.714;2023-10-19T04:47:21;313.77;;;71.70;;
10248;SDS011;5169;50.560;9.714;2023-10-19T04:49:47;313.00;;;69.97;;
10248;SDS011;5169;50.560;9.714;2023-10-19T04:52:15;310.97;;;71.40;;
10248;SDS011;5169;50.560;9.714;2023-10-19T04:54:41;314.37;;;72.37;;
10248;SDS011;5169;50.560;9.714;2023-10-19T04:57:08;316.37;;;74.17;;
10248;SDS011;5169;50.560;9.714;2023-10-19T04:59:35;314.10;;;73.37;;
10248;SDS011;5169;50.560;9.714;2023-10-19T05:02:01;314.57;;;72.80;;
10248;SDS011;5169;50.560;9.714;2023-10-19T05:04:29;316.10;;;75.10;;
10248;SDS011;5169;50.560;9.714;2023-10-19T05:06:55;315.13;;;73.47;;
10248;SDS011;5169;50.560;9.714;2023-10-19T05:09:23;317.00;;;74.27;;
10248;SDS011;5169;50.560;9.714;2023-10-19T05:11:49;317.80;;;74.30;;
10248;SDS011;5169;50.560;9.714;2023-10-19T05:14:14;316.90;;;74.60;;
10248;SDS011;5169;50.560;9.714;2023-10-19T05:16:40;317.17;;;73.20;;
10248;SDS011;5169;50.560;9.714;2023-10-19T05:19:06;316.27;;;74.03;;
10248;SDS011;5169;50.560;9.714;2023-10-19T05:21:31;319.30;;;75.37;;
10248;SDS011;5169;50.560;9.714;2023-10-19T05:23:58;319.23;;;76.80;;
10248;SDS011;5169;50.560;9.714;2023-10-19T05:26:25;319.53;;;75.53;;
10248;SDS011;5169;50.560;9.714;2023-10-19T05:28:53;318.67;;;75.47;;
10248;SDS011;5169;50.560;9.714;2023-10-19T05:31:19;318.87;;;73.87;;
10248;SDS011;5169;50.560;9.714;2023-10-19T05:33:45;320.20;;;77.00;;
10248;SDS011;5169;50.560;9.714;2023-10-19T05:36:14;318.43;;;74.63;;
10248;SDS011;5169;50.560;9.714;2023-10-19T05:38:43;317.53;;;75.13;;
10248;SDS011;5169;50.560;9.714;2023-10-19T05:41:11;318.93;;;75.33;;
10248;SDS011;5169;50.560;9.714;2023-10-19T05:43:37;320.43;;;77.13;;
10248;SDS011;5169;50.560;9.714;2023-10-19T05:46:03;319.23;;;76.33;;
10248;SDS011;5169;50.560;9.714;2023-10-19T05:48:29;317.77;;;75.40;;
10248;SDS011;5169;50.560;9.714;2023-10-19T05:50:58;320.77;;;74.73;;
10248;SDS011;5169;50.560;9.714;2023-10-19T05:53:23;323.30;;;77.37;;
10248;SDS011;5169;50.560;9.714;2023-10-19T05:55:49;320.77;;;77.77;;
10248;SDS011;5169;50.560;9.714;2023-10-19T05:58:17;323.53;;;76.47;;
10248;SDS011;5169;50.560;9.714;2023-10-19T06:00:42;319.60;;;78.53;;
10248;SDS011;5169;50.560;9.714;2023-10-19T06:03:08;321.63;;;78.03;;
10248;SDS011;5169;50.560;9.714;2023-10-19T06:05:34;321.03;;;75.63;;
10248;SDS011;5169;50.560;9.714;2023-10-19T06:08:00;321.30;;;75.70;;
10248;SDS011;5169;50.560;9.714;2023-10-19T06:10:29;321.70;;;77.67;;
10248;SDS011;5169;50.560;9.714;2023-10-19T06:12:55;321.73;;;77.47;;
10248;SDS011;5169;50.560;9.714;2023-10-19T06:15:22;324.33;;;78.27;;
10248;SDS011;5169;50.560;9.714;2023-10-19T06:17:53;324.53;;;78.83;;
10248;SDS011;5169;50.560;9.714;2023-10-19T06:20:18;323.67;;;78.90;;
10248;SDS011;5169;50.560;9.714;2023-10-19T06:22:51;321.67;;;78.33;;
10248;SDS011;5169;50.560;9.714;2023-10-19T06:25:32;323.07;;;78.53;;
10248;SDS011;5169;50.560;9.714;2023-10-19T06:28:02;325.60;;;79.30;;
10248;SDS011;5169;50.560;9.714;2023-10-19T06:30:29;325.83;;;78.93;;
10248;SDS011;5169;50.560;9.714;2023-10-19T06:32:55;322.20;;;76.33;;
10248;SDS011;5169;50.560;9.714;2023-10-19T06:35:25;323.67;;;79.80;;
10248;SDS011;5169;50.560;9.714;2023-10-19T06:37:52;322.60;;;79.20;;
10248;SDS011;5169;50.560;9.714;2023-10-19T06:40:20;325.83;;;80.10;;
10248;SDS011;5169;50.560;9.714;2023-10-19T06:42:48;326.43;;;80.37;;
10248;SDS011;5169;50.560;9.714;2023-10-19T06:45:17;324.07;;;79.27;;
10248;SDS011;5169;50.560;9.714;2023-10-19T06:47:46;325.03;;;79.47;;
10248;SDS011;5169;50.560;9.714;2023-10-19T06:50:13;325.97;;;81.00;;
10248;SDS011;5169;50.560;9.714;2023-10-19T06:52:43;325.63;;;80.20;;
10248;SDS011;5169;50.560;9.714;2023-10-19T06:55:10;327.80;;;81.87;;
10248;SDS011;5169;50.560;9.714;2023-10-19T06:57:41;327.83;;;80.57;;
10248;SDS011;5169;50.560;9.714;2023-10-19T07:00:13;324.90;;;79.87;;
10248;SDS011;5169;50.560;9.714;2023-10-19T07:02:47;328.23;;;79.63;;
10248;SDS011;5169;50.560;9.714;2023-10-19T07:05:17;325.03;;;79.20;;
10248;SDS011;5169;50.560;9.714;2023-10-19T07:07:46;325.67;;;80.63;;
10248;SDS011;5169;50.560;9.714;2023-10-19T07:10:12;325.17;;;79.73;;
10248;SDS011;5169;50.560;9.714;2023-10-19T07:12:40;323.60;;;79.60;;
10248;SDS011;5169;50.560;9.714;2023-10-19T07:15:09;327.73;;;78.67;;
10248;SDS011;5169;50.560;9.714;2023-10-19T07:17:44;325.23;;;81.00;;
10248;SDS011;5169;50.560;9.714;2023-10-19T07:20:14;324.83;;;80.37;;
10248;SDS011;5169;50.560;9.714;2023-10-19T07:23:01;325.83;;;78.83;;
10248;SDS011;5169;50.560;9.714;2023-10-19T07:25:37;326.03;;;82.30;;
10248;SDS011;5169;50.560;9.714;2023-10-19T07:28:11;326.53;;;83.37;;
10248;SDS011;5169;50.560;9.714;2023-10-19T07:30:38;325.77;;;79.27;;
10248;SDS011;5169;50.560;9.714;2023-10-19T07:33:09;323.20;;;80.50;;
10248;SDS011;5169;50.560;9.714;2023-10-19T07:35:35;326.87;;;82.77;;
10248;SDS011;5169;50.560;9.714;2023-10-19T07:38:07;324.97;;;80.93;;
10248;SDS011;5169;50.560;9.714;2023-10-19T07:40:33;325.70;;;81.90;;
10248;SDS011;5169;50.560;9.714;2023-10-19T07:42:59;328.63;;;81.70;;
10248;SDS011;5169;50.560;9.714;2023-10-19T07:45:28;327.33;;;81.73;;
10248;SDS011;5169;50.560;9.714;2023-10-19T07:47:59;325.37;;;82.87;;
10248;SDS011;5169;50.560;9.714;2023-10-19T07:50:34;326.27;;;83.10;;
10248;SDS011;5169;50.560;9.714;2023-10-19T07:53:01;330.33;;;84.97;;
10248;SDS011;5169;50.560;9.714;2023-10-19T07:55:29;329.47;;;85.70;;
10248;SDS011;5169;50.560;9.714;2023-10-19T07:57:58;330.43;;;83.27;;
10248;SDS011;5169;50.560;9.714;2023-10-19T08:00:28;327.53;;;83.80;;
10248;SDS011;5169;50.560;9.714;2023-10-19T08:02:59;330.37;;;84.03;;
10248;SDS011;5169;50.560;9.714;2023-10-19T08:05:25;329.97;;;83.90;;
10248;SDS011;5169;50.560;9.714;2023-10-19T08:07:51;330.60;;;86.50;;
10248;SDS011;5169;50.560;9.714;2023-10-19T08:10:17;329.77;;;85.70;;
10248;SDS011;5169;50.560;9.714;2023-10-19T08:12:44;331.50;;;85.50;;
10248;SDS011;5169;50.560;9.714;2023-10-19T08:15:17;333.13;;;91.93;;
10248;SDS011;5169;50.560;9.714;2023-10-19T08:17:45;333.53;;;85.50;;
10248;SDS011;5169;50.560;9.714;2023-10-19T08:20:20;332.67;;;87.40;;
10248;SDS011;5169;50.560;9.714;2023-10-19T08:22:49;336.57;;;88.60;;
10248;SDS011;5169;50.560;9.714;2023-10-19T08:25:18;337.03;;;91.23;;
10248;SDS011;5169;50.560;9.714;2023-10-19T08:27:46;339.03;;;92.33;;
10248;SDS011;5169;50.560;9.714;2023-10-19T08:30:15;340.60;;;93.87;;
10248;SDS011;5169;50.560;9.714;2023-10-19T08:32:46;340.57;;;97.67;;
10248;SDS011;5169;50.560;9.714;2023-10-19T08:35:20;339.83;;;96.93;;
10248;SDS011;5169;50.560;9.714;2023-10-19T08:37:52;338.10;;;95.10;;
10248;SDS011;5169;50.560;9.714;2023-10-19T08:40:19;339.20;;;96.93;;
10248;SDS011;5169;50.560;9.714;2023-10-19T08:42:46;339.90;;;98.17;;
10248;SDS011;5169;50.560;9.714;2023-10-19T08:45:15;344.70;;;99.53;;
10248;SDS011;5169;50.560;9.714;2023-10-19T08:47:44;346.63;;;99.53;;
10248;SDS011;5169;50.560;9.714;2023-10-19T08:50:26;347.23;;;100.77;;
10248;SDS011;5169;50.560;9.714;2023-10-19T08:52:55;349.83;;;105.00;;
10248;SDS011;5169;50.560;9.714;2023-10-19T08:55:26;347.13;;;101.87;;
10248;SDS011;5169;50.560;9.714;2023-10-19T08:57:52;351.57;;;107.83;;
10248;SDS011;5169;50.560;9.714;2023-10-19T09:00:20;348.90;;;104.77;;
10248;SDS011;5169;50.560;9.714;2023-10-19T09:02:50;347.90;;;103.67;;
10248;SDS011;5169;50.560;9.714;2023-10-19T09:05:19;348.47;;;104.00;;
10248;SDS011;5169;50.560;9.714;2023-10-19T09:07:48;348.03;;;104.03;;
10248;SDS011;5169;50.560;9.714;2023-10-19T09:10:26;349.17;;;105.23;;
10248;SDS011;5169;50.560;9.714;2023-10-19T09:13:06;347.50;;;103.23;;
10248;SDS011;5169;50.560;9.714;2023-10-19T09:15:37;349.33;;;105.30;;
10248;SDS011;5169;50.560;9.714;2023-10-19T09:18:11;352.27;;;108.53;;
10248;SDS011;5169;50.560;9.714;2023-10-19T09:20:41;351.60;;;108.83;;
10248;SDS011;5169;50.560;9.714;2023-10-19T09:23:36;348.47;;;102.97;;
10248;SDS011;5169;50.560;9.714;2023-10-19T09:26:05;347.80;;;105.03;;
10248;SDS011;5169;50.560;9.714;2023-10-19T09:28:33;350.33;;;106.50;;
10248;SDS011;5169;50.560;9.714;2023-10-19T09:31:01;345.80;;;104.03;;
10248;SDS011;5169;50.560;9.714;2023-10-19T09:33:30;348.20;;;104.13;;
10248;SDS011;5169;50.560;9.714;2023-10-19T09:35:59;344.90;;;103.63;;
10248;SDS011;5169;50.560;9.714;2023-10-19T09:38:26;348.03;;;103.90;;
10248;SDS011;5169;50.560;9.714;2023-10-19T09:40:52;347.30;;;107.40;;
10248;SDS011;5169;50.560;9.714;2023-10-19T09:46:12;352.30;;;112.33;;
10248;SDS011;5169;50.560;9.714;2023-10-19T09:48:49;355.77;;;111.83;;
10248;SDS011;5169;50.560;9.714;2023-10-19T09:51:15;354.17;;;110.23;;
10248;SDS011;5169;50.560;9.714;2023-10-19T09:54:00;355.10;;;116.03;;
10248;SDS011;5169;50.560;9.714;2023-10-19T09:56:36;354.70;;;111.47;;
10248;SDS011;5169;50.560;9.714;2023-10-19T09:59:06;354.53;;;114.50;;
10248;SDS011;5169;50.560;9.714;2023-10-19T10:04:32;356.70;;;116.90;;
10248;SDS011;5169;50.560;9.714;2023-10-19T10:07:00;357.47;;;120.57;;
10248;SDS011;5169;50.560;9.714;2023-10-19T10:09:41;366.03;;;124.73;;
10248;SDS011;5169;50.560;9.714;2023-10-19T10:12:23;363.10;;;129.13;;
10248;SDS011;5169;50.560;9.714;2023-10-19T10:14:57;365.87;;;130.93;;
10248;SDS011;5169;50.560;9.714;2023-10-19T10:17:24;363.97;;;126.30;;
10248;SDS011;5169;50.560;9.714;2023-10-19T10:19:57;366.37;;;133.97;;
10248;SDS011;5169;50.560;9.714;2023-10-19T10:22:44;363.23;;;128.07;;
10248;SDS011;5169;50.560;9.714;2023-10-19T10:25:30;366.03;;;124.90;;
10248;SDS011;5169;50.560;9.714;2023-10-19T10:27:56;367.90;;;134.63;;
10248;SDS011;5169;50.560;9.714;2023-10-19T10:30:26;372.33;;;140.27;;
10248;SDS011;5169;50.560;9.714;2023-10-19T10:32:54;367.43;;;131.77;;
10248;SDS011;5169;50.560;9.714;2023-10-19T10:38:05;368.70;;;135.73;;
10248;SDS011;5169;50.560;9.714;2023-10-19T10:40:43;370.83;;;142.70;;
10248;SDS011;5169;50.560;9.714;2023-10-19T10:43:09;372.77;;;146.60;;
10248;SDS011;5169;50.560;9.714;2023-10-19T10:45:35;369.93;;;140.90;;
10248;SDS011;5169;50.560;9.714;2023-10-19T10:48:01;374.43;;;144.27;;
10248;SDS011;5169;50.560;9.714;2023-10-19T10:50:29;374.97;;;147.97;;
10248;SDS011;5169;50.560;9.714;2023-10-19T10:52:54;386.73;;;171.80;;
10248;SDS011;5169;50.560;9.714;2023-10-19T10:55:40;389.70;;;183.67;;
10248;SDS011;5169;50.560;9.714;2023-10-19T10:58:06;397.47;;;204.90;;
10248;SDS011;5169;50.560;9.714;2023-10-19T11:00:31;396.93;;;205.77;;
10248;SDS011;5169;50.560;9.714;2023-10-19T11:03:02;395.63;;;200.13;;
10248;SDS011;5169;50.560;9.714;2023-10-19T11:05:38;395.47;;;196.00;;
10248;SDS011;5169;50.560;9.714;2023-10-19T11:08:15;385.27;;;169.77;;
10248;SDS011;5169;50.560;9.714;2023-10-19T11:10:43;384.63;;;170.17;;
10248;SDS011;5169;50.560;9.714;2023-10-19T11:13:12;384.53;;;177.20;;
10248;SDS011;5169;50.560;9.714;2023-10-19T11:15:54;382.43;;;164.53;;
10248;SDS011;5169;50.560;9.714;2023-10-19T11:21:06;380.03;;;162.80;;
10248;SDS011;5169;50.560;9.714;2023-10-19T11:23:36;381.20;;;163.67;;
10248;SDS011;5169;50.560;9.714;2023-10-19T11:26:04;377.90;;;156.67;;
10248;SDS011;5169;50.560;9.714;2023-10-19T11:28:31;375.03;;;153.07;;
10248;SDS011;5169;50.560;9.714;2023-10-19T11:31:20;376.90;;;150.57;;
10248;SDS011;5169;50.560;9.714;2023-10-19T11:33:53;370.63;;;138.03;;
10248;SDS011;5169;50.560;9.714;2023-10-19T11:36:20;371.53;;;137.63;;
10248;SDS011;5169;50.560;9.714;2023-10-19T11:38:49;376.43;;;145.97;;
10248;SDS011;5169;50.560;9.714;2023-10-19T11:41:19;385.73;;;175.60;;
10248;SDS011;5169;50.560;9.714;2023-10-19T11:43:45;389.27;;;182.57;;
10248;SDS011;5169;50.560;9.714;2023-10-19T11:46:12;394.67;;;197.90;;
10248;SDS011;5169;50.560;9.714;2023-10-19T11:48:42;394.80;;;197.47;;
10248;SDS011;5169;50.560;9.714;2023-10-19T11:51:11;391.53;;;199.77;;
10248;SDS011;5169;50.560;9.714;2023-10-19T11:53:37;386.90;;;183.10;;
10248;SDS011;5169;50.560;9.714;2023-10-19T11:56:04;384.57;;;169.10;;
10248;SDS011;5169;50.560;9.714;2023-10-19T11:58:31;379.93;;;162.53;;
10248;SDS011;5169;50.560;9.714;2023-10-19T12:00:58;377.00;;;152.50;;
10248;SDS011;5169;50.560;9.714;2023-10-19T12:03:24;374.77;;;149.83;;
10248;SDS011;5169;50.560;9.714;2023-10-19T12:05:50;379.60;;;154.93;;
10248;SDS011;5169;50.560;9.714;2023-10-19T12:08:19;379.03;;;153.20;;
10248;SDS011;5169;50.560;9.714;2023-10-19T12:10:44;374.50;;;144.03;;
10248;SDS011;5169;50.560;9.714;2023-10-19T12:13:10;373.87;;;143.30;;
10248;SDS011;5169;50.560;9.714;2023-10-19T12:15:36;374.00;;;144.77;;
10248;SDS011;5169;50.560;9.714;2023-10-19T12:18:16;376.97;;;147.57;;
10248;SDS011;5169;50.560;9.714;2023-10-19T12:20:45;371.07;;;137.37;;
10248;SDS011;5169;50.560;9.714;2023-10-19T12:23:11;370.93;;;138.80;;
10248;SDS011;5169;50.560;9.714;2023-10-19T12:25:37;370.57;;;137.63;;
10248;SDS011;5169;50.560;9.714;2023-10-19T12:28:03;373.83;;;142.57;;
10248;SDS011;5169;50.560;9.714;2023-10-19T12:30:32;372.67;;;141.43;;
10248;SDS011;5169;50.560;9.714;2023-10-19T12:33:01;371.07;;;140.47;;
10248;SDS011;5169;50.560;9.714;2023-10-19T12:35:32;369.27;;;135.23;;
10248;SDS011;5169;50.560;9.714;2023-10-19T12:38:17;369.97;;;138.13;;
10248;SDS011;5169;50.560;9.714;2023-10-19T12:40:48;369.53;;;136.90;;
10248;SDS011;5169;50.560;9.714;2023-10-19T12:43:19;373.10;;;142.53;;
10248;SDS011;5169;50.560;9.714;2023-10-19T12:45:47;371.97;;;141.20;;
10248;SDS011;5169;50.560;9.714;2023-10-19T12:48:18;367.03;;;130.97;;
10248;SDS011;5169;50.560;9.714;2023-10-19T12:50:45;365.50;;;130.27;;
10248;SDS011;5169;50.560;9.714;2023-10-19T12:53:12;364.13;;;126.53;;
10248;SDS011;5169;50.560;9.714;2023-10-19T12:55:39;370.13;;;137.13;;
10248;SDS011;5169;50.560;9.714;2023-10-19T12:58:05;366.87;;;130.00;;
10248;SDS011;5169;50.560;9.714;2023-10-19T13:00:34;364.20;;;125.27;;
10248;SDS011;5169;50.560;9.714;2023-10-19T13:03:08;363.27;;;125.20;;
10248;SDS011;5169;50.560;9.714;2023-10-19T13:05:34;363.97;;;124.37;;
10248;SDS011;5169;50.560;9.714;2023-10-19T13:08:09;362.23;;;121.03;;
10248;SDS011;5169;50.560;9.714;2023-10-19T13:10:38;361.13;;;121.67;;
10248;SDS011;5169;50.560;9.714;2023-10-19T13:13:08;363.50;;;122.73;;
10248;SDS011;5169;50.560;9.714;2023-10-19T13:15:41;364.90;;;126.30;;
10248;SDS011;5169;50.560;9.714;2023-10-19T13:18:09;362.43;;;118.80;;
10248;SDS011;5169;50.560;9.714;2023-10-19T13:20:52;365.37;;;124.77;;
10248;SDS011;5169;50.560;9.714;2023-10-19T13:23:21;364.53;;;121.63;;
10248;SDS011;5169;50.560;9.714;2023-10-19T13:25:47;361.67;;;117.13;;
10248;SDS011;5169;50.560;9.714;2023-10-19T13:28:22;364.83;;;122.20;;
10248;SDS011;5169;50.560;9.714;2023-10-19T13:30:51;361.03;;;118.40;;
10248;SDS011;5169;50.560;9.714;2023-10-19T13:33:18;362.73;;;121.93;;
10248;SDS011;5169;50.560;9.714;2023-10-19T13:35:46;363.00;;;118.30;;
10248;SDS011;5169;50.560;9.714;2023-10-19T13:38:16;359.63;;;118.63;;
10248;SDS011;5169;50.560;9.714;2023-10-19T13:40:45;361.37;;;123.77;;
10248;SDS011;5169;50.560;9.714;2023-10-19T13:43:15;362.80;;;121.80;;
10248;SDS011;5169;50.560;9.714;2023-10-19T13:45:43;358.67;;;118.53;;
10248;SDS011;5169;50.560;9.714;2023-10-19T13:48:12;358.67;;;118.17;;
10248;SDS011;5169;50.560;9.714;2023-10-19T13:50:45;357.80;;;115.00;;
10248;SDS011;5169;50.560;9.714;2023-10-19T13:53:16;356.97;;;113.60;;
10248;SDS011;5169;50.560;9.714;2023-10-19T13:55:45;357.57;;;117.07;;
10248;SDS011;5169;50.560;9.714;2023-10-19T13:58:11;357.67;;;117.10;;
10248;SDS011;5169;50.560;9.714;2023-10-19T14:00:40;357.33;;;117.13;;
10248;SDS011;5169;50.560;9.714;2023-10-19T14:03:08;361.57;;;115.57;;
10248;SDS011;5169;50.560;9.714;2023-10-19T14:08:05;359.50;;;115.77;;
10248;SDS011;5169;50.560;9.714;2023-10-19T14:10:32;358.17;;;117.63;;
10248;SDS011;5169;50.560;9.714;2023-10-19T14:13:00;360.30;;;117.53;;
10248;SDS011;5169;50.560;9.714;2023-10-19T14:15:26;361.23;;;119.03;;
10248;SDS011;5169;50.560;9.714;2023-10-19T14:17:56;360.13;;;117.43;;
10248;SDS011;5169;50.560;9.714;2023-10-19T14:20:25;360.73;;;117.23;;
10248;SDS011;5169;50.560;9.714;2023-10-19T14:22:53;357.63;;;114.93;;
10248;SDS011;5169;50.560;9.714;2023-10-19T14:25:20;359.47;;;117.67;;
10248;SDS011;5169;50.560;9.714;2023-10-19T14:27:48;357.67;;;113.53;;
10248;SDS011;5169;50.560;9.714;2023-10-19T14:30:19;356.80;;;115.23;;
10248;SDS011;5169;50.560;9.714;2023-10-19T14:32:47;357.03;;;116.33;;
10248;SDS011;5169;50.560;9.714;2023-10-19T14:35:14;358.93;;;119.30;;
10248;SDS011;5169;50.560;9.714;2023-10-19T14:37:42;360.77;;;117.07;;
10248;SDS011;5169;50.560;9.714;2023-10-19T14:40:09;358.00;;;114.60;;
10248;SDS011;5169;50.560;9.714;2023-10-19T14:42:39;358.30;;;113.60;;
10248;SDS011;5169;50.560;9.714;2023-10-19T14:45:11;358.23;;;114.10;;
10248;SDS011;5169;50.560;9.714;2023-10-19T14:47:39;363.93;;;121.70;;
10248;SDS011;5169;50.560;9.714;2023-10-19T14:52:36;362.90;;;123.17;;
10248;SDS011;5169;50.560;9.714;2023-10-19T14:55:05;359.13;;;118.77;;
10248;SDS011;5169;50.560;9.714;2023-10-19T14:57:32;361.83;;;120.53;;